Time;durP1;ratioP1;P1;durP2;ratioP2;P2;SDS_P1;SDS_P2;PMS_P1;PMS_P2;Temp;Humidity;BMP_temperature;BMP_pressure;BME280_temperature;BME280_humidity;BME280_pressure;Samples;Min_cycle;Max_cycle;Signal;HPM_P1;HPM_P2
2022/07/23 00:00:12;;;;;;;0.30;0.30;;;18.40;99.90;;;;;;4819726;29;20608;-78
2022/07/23 00:02:39;;;;;;;0.40;0.40;;;18.40;99.90;;;;;;4804872;29;20054;-80
2022/07/23 00:05:06;;;;;;;0.28;0.28;;;18.40;99.90;;;;;;4804807;29;20065;-80
2022/07/23 00:07:33;;;;;;;0.40;0.40;;;18.40;99.90;;;;;;4819981;29;20081;-78
2022/07/23 00:10:00;;;;;;;0.52;0.50;;;18.40;99.90;;;;;;4819114;29;20092;-79
2022/07/23 00:12:27;;;;;;;0.20;0.20;;;18.40;99.90;;;;;;4818717;29;20081;-80
2022/07/23 00:14:54;;;;;;;0.40;0.40;;;18.40;99.90;;;;;;4820062;29;20060;-80
2022/07/23 00:17:21;;;;;;;0.47;0.40;;;18.50;99.90;;;;;;4836429;29;20410;-80
2022/07/23 00:19:48;;;;;;;0.40;0.40;;;18.50;99.90;;;;;;4820075;29;20069;-79
2022/07/23 00:22:15;;;;;;;0.40;0.40;;;18.40;99.90;;;;;;4804884;29;20122;-79
2022/07/23 00:24:41;;;;;;;0.30;0.30;;;18.40;99.90;;;;;;4805037;29;20108;-80
2022/07/23 00:27:08;;;;;;;2.60;0.40;;;18.40;99.90;;;;;;4834591;29;20057;-79
2022/07/23 00:29:35;;;;;;;0.40;0.40;;;18.40;99.90;;;;;;4820380;29;20601;-79
2022/07/23 00:32:03;;;;;;;0.50;0.38;;;18.40;99.90;;;;;;4817270;29;20081;-78
2022/07/23 00:34:31;;;;;;;0.40;0.30;;;18.40;99.90;;;;;;4835593;29;20799;-79
2022/07/23 00:36:57;;;;;;;0.22;0.22;;;18.40;99.90;;;;;;4819956;29;20105;-79
2022/07/23 00:39:24;;;;;;;0.30;0.30;;;18.40;99.90;;;;;;4819758;29;20119;-79
2022/07/23 00:41:51;;;;;;;1.00;0.52;;;18.40;99.90;;;;;;4817499;29;20061;-80
2022/07/23 00:44:26;;;;;;;0.30;0.30;;;18.40;99.90;;;;;;4819506;29;20641;-80
2022/07/23 00:46:55;;;;;;;0.30;0.30;;;18.40;99.90;;;;;;4819326;29;20155;-79
2022/07/23 00:49:29;;;;;;;0.22;0.22;;;18.30;99.90;;;;;;4819747;29;20062;-79
2022/07/23 00:51:56;;;;;;;0.55;0.40;;;18.40;99.90;;;;;;4818813;29;20089;-81
2022/07/23 00:54:24;;;;;;;0.32;0.30;;;18.40;99.90;;;;;;4819222;29;20085;-80
2022/07/23 00:56:51;;;;;;;0.30;0.30;;;18.40;99.90;;;;;;4817469;29;20140;-79
2022/07/23 00:59:20;;;;;;;0.55;0.40;;;18.40;99.90;;;;;;4819246;29;20241;-79
2022/07/23 01:01:48;;;;;;;0.20;0.20;;;18.30;99.90;;;;;;4804031;29;20061;-80
2022/07/23 01:04:16;;;;;;;0.38;0.38;;;18.30;99.90;;;;;;4818959;29;20141;-79
2022/07/23 01:06:43;;;;;;;0.75;0.40;;;18.30;99.90;;;;;;4819016;29;20464;-77
2022/07/23 01:09:10;;;;;;;0.40;0.40;;;18.30;99.90;;;;;;4804395;29;20061;-78
2022/07/23 01:11:37;;;;;;;0.30;0.30;;;18.30;99.90;;;;;;4802470;29;20233;-80
2022/07/23 01:14:14;;;;;;;0.50;0.47;;;18.20;99.90;;;;;;4819152;29;20103;-79
2022/07/23 01:16:42;;;;;;;0.30;0.30;;;18.20;99.90;;;;;;4818758;29;20204;-79
2022/07/23 01:19:09;;;;;;;0.57;0.40;;;18.10;99.90;;;;;;4804163;29;20053;-79
2022/07/23 01:21:38;;;;;;;0.63;0.43;;;18.10;99.90;;;;;;4800314;29;20054;-77
2022/07/23 01:24:06;;;;;;;0.57;0.38;;;18.00;99.90;;;;;;4792585;29;20049;-78
2022/07/23 01:26:33;;;;;;;0.40;0.40;;;18.00;99.90;;;;;;4817337;29;20098;-79
2022/07/23 01:29:00;;;;;;;0.30;0.30;;;18.00;99.90;;;;;;4803772;29;20058;-80
2022/07/23 01:40:15;;;;;;;0.35;0.32;;;17.80;99.90;;;;;;5175046;24;20057;-87
2022/07/23 01:42:44;;;;;;;0.50;0.50;;;17.80;99.90;;;;;;4814223;29;20080;-86
2022/07/23 01:45:11;;;;;;;0.35;0.35;;;17.80;99.90;;;;;;4813775;29;20068;-86
2022/07/23 01:47:38;;;;;;;0.60;0.47;;;17.80;99.90;;;;;;4815455;29;20053;-86
2022/07/23 01:50:06;;;;;;;0.40;0.40;;;17.80;99.90;;;;;;4812315;29;20097;-87
2022/07/23 01:52:33;;;;;;;0.63;0.40;;;17.90;99.90;;;;;;4801787;29;20082;-88
2022/07/23 01:55:00;;;;;;;0.30;0.30;;;17.90;99.90;;;;;;4815680;29;20064;-88
2022/07/23 01:57:27;;;;;;;0.40;0.40;;;17.90;99.90;;;;;;4817009;29;20145;-87
2022/07/23 01:59:55;;;;;;;0.30;0.30;;;17.90;99.90;;;;;;4818034;29;20054;-87
2022/07/23 02:02:22;;;;;;;0.55;0.38;;;17.90;99.90;;;;;;4815148;29;20061;-87
2022/07/23 02:04:49;;;;;;;0.30;0.30;;;17.90;99.90;;;;;;4810892;29;20053;-87
2022/07/23 02:07:16;;;;;;;0.30;0.28;;;18.00;99.90;;;;;;4811897;29;20150;-88
2022/07/23 02:09:43;;;;;;;0.63;0.52;;;18.00;99.90;;;;;;4811439;29;20049;-88
2022/07/23 02:12:10;;;;;;;1.30;0.40;;;18.00;99.90;;;;;;4813198;29;20251;-88
2022/07/23 02:14:37;;;;;;;0.35;0.35;;;18.00;99.90;;;;;;4814381;29;20528;-87
2022/07/23 02:17:05;;;;;;;0.30;0.30;;;18.00;99.90;;;;;;4814331;29;20537;-88
2022/07/23 02:19:32;;;;;;;0.30;0.30;;;18.00;99.90;;;;;;4814353;29;20493;-88
2022/07/23 02:21:59;;;;;;;0.30;0.30;;;18.00;99.90;;;;;;4814729;29;20068;-87
2022/07/23 02:24:26;;;;;;;0.40;0.40;;;18.00;99.90;;;;;;4812233;29;20054;-87
2022/07/23 02:26:53;;;;;;;0.43;0.40;;;18.00;99.90;;;;;;4797148;29;20468;-88
2022/07/23 02:29:20;;;;;;;0.45;0.35;;;18.00;99.90;;;;;;4797249;29;20101;-88
2022/07/23 02:31:47;;;;;;;0.32;0.30;;;18.00;99.90;;;;;;4797048;29;20094;-88
2022/07/23 02:34:14;;;;;;;0.50;0.35;;;18.00;99.90;;;;;;4812686;29;20080;-88
2022/07/23 02:36:41;;;;;;;0.57;0.43;;;18.00;99.90;;;;;;4827992;29;20084;-87
2022/07/23 02:39:09;;;;;;;0.35;0.32;;;18.00;99.90;;;;;;4826475;29;20064;-87
2022/07/23 02:41:36;;;;;;;0.40;0.30;;;18.00;99.90;;;;;;4828335;29;20054;-88
2022/07/23 02:44:03;;;;;;;1.13;0.77;;;18.00;99.90;;;;;;4825836;29;20058;-87
2022/07/23 02:46:30;;;;;;;0.38;0.38;;;18.00;99.90;;;;;;4828084;29;20061;-88
2022/07/23 02:48:57;;;;;;;0.20;0.20;;;17.90;99.90;;;;;;4827300;29;20081;-87
2022/07/23 02:51:25;;;;;;;1.02;0.32;;;18.00;99.90;;;;;;4827099;29;20054;-88
2022/07/23 02:53:52;;;;;;;0.40;0.40;;;18.00;99.90;;;;;;4798052;29;20054;-90
2022/07/23 02:56:19;;;;;;;0.40;0.40;;;18.00;99.90;;;;;;4813687;29;20110;-88
2022/07/23 02:58:46;;;;;;;0.38;0.30;;;18.00;99.90;;;;;;4826577;29;20115;-88
2022/07/23 03:01:13;;;;;;;1.00;0.50;;;18.00;99.90;;;;;;4827370;29;20053;-88
2022/07/23 03:03:44;;;;;;;0.20;0.20;;;18.00;99.90;;;;;;4825881;29;20137;-88
2022/07/23 03:06:11;;;;;;;0.40;0.40;;;18.00;99.90;;;;;;4810395;29;20065;-88
2022/07/23 03:08:39;;;;;;;0.82;0.40;;;18.00;99.90;;;;;;4810414;29;20130;-88
2022/07/23 03:11:10;;;;;;;0.40;0.40;;;18.00;99.90;;;;;;4815938;29;20062;-89
2022/07/23 03:13:38;;;;;;;0.60;0.40;;;18.00;99.90;;;;;;4834124;29;20080;-88
2022/07/23 03:16:05;;;;;;;0.30;0.30;;;17.90;99.90;;;;;;4835066;29;20065;-88
2022/07/23 03:18:33;;;;;;;0.40;0.40;;;17.90;99.90;;;;;;4829444;29;20073;-89
2022/07/23 03:21:06;;;;;;;0.65;0.40;;;17.90;99.90;;;;;;4826556;29;20057;-88
2022/07/23 03:23:33;;;;;;;0.30;0.30;;;17.90;99.90;;;;;;4820861;29;20535;-87
2022/07/23 03:26:01;;;;;;;0.50;0.50;;;17.90;99.90;;;;;;4827843;29;20210;-88
2022/07/23 03:28:28;;;;;;;0.40;0.40;;;17.80;99.90;;;;;;4826279;29;20065;-87
2022/07/23 03:30:55;;;;;;;0.40;0.40;;;17.80;99.90;;;;;;4811521;29;20125;-87
2022/07/23 03:33:22;;;;;;;0.50;0.50;;;17.70;99.90;;;;;;4824414;29;20130;-87
2022/07/23 03:35:49;;;;;;;0.80;0.30;;;17.70;99.90;;;;;;4810244;29;20203;-88
2022/07/23 03:38:16;;;;;;;0.55;0.40;;;17.60;99.90;;;;;;4812513;29;20071;-87
2022/07/23 03:40:43;;;;;;;0.60;0.35;;;17.60;99.90;;;;;;4813515;29;20124;-88
2022/07/23 03:43:10;;;;;;;0.20;0.20;;;17.60;99.90;;;;;;4812479;29;20047;-88
2022/07/23 03:45:37;;;;;;;0.50;0.50;;;17.60;99.90;;;;;;4802535;29;20054;-87
2022/07/23 03:48:05;;;;;;;0.30;0.30;;;17.60;99.90;;;;;;4803038;29;20118;-89
2022/07/23 03:50:32;;;;;;;0.30;0.30;;;17.50;99.90;;;;;;4816081;29;20407;-87
2022/07/23 03:52:59;;;;;;;0.40;0.40;;;17.50;99.90;;;;;;4814715;29;20065;-88
2022/07/23 03:55:26;;;;;;;0.60;0.60;;;17.50;99.90;;;;;;4815838;29;20062;-88
2022/07/23 03:57:53;;;;;;;0.35;0.35;;;17.50;99.90;;;;;;4813396;29;20058;-87
2022/07/23 04:00:20;;;;;;;0.40;0.40;;;17.60;99.90;;;;;;4815394;29;20054;-89
2022/07/23 04:02:47;;;;;;;0.30;0.30;;;17.50;99.90;;;;;;4815794;29;20056;-89
2022/07/23 04:05:14;;;;;;;0.73;0.30;;;17.50;99.90;;;;;;4816548;29;20050;-89
2022/07/23 04:07:41;;;;;;;0.38;0.38;;;17.50;99.90;;;;;;4816896;29;20042;-88
2022/07/23 04:10:09;;;;;;;0.77;0.43;;;17.50;99.90;;;;;;4826453;29;20077;-86
2022/07/23 04:12:36;;;;;;;0.40;0.40;;;17.50;99.90;;;;;;4803578;29;20050;-88
2022/07/23 04:15:03;;;;;;;0.43;0.35;;;17.50;99.90;;;;;;4817418;29;20066;-88
2022/07/23 04:17:30;;;;;;;0.43;0.40;;;17.50;99.90;;;;;;4831929;29;20084;-87
2022/07/23 04:19:57;;;;;;;0.30;0.30;;;17.60;99.90;;;;;;4827608;29;20061;-87
2022/07/23 04:22:24;;;;;;;0.50;0.50;;;17.60;99.90;;;;;;4815007;29;20173;-87
2022/07/23 04:24:51;;;;;;;0.50;0.50;;;17.60;99.90;;;;;;4831820;29;20130;-87
2022/07/23 04:27:18;;;;;;;0.52;0.50;;;17.60;99.90;;;;;;4829708;29;20068;-89
2022/07/23 04:29:45;;;;;;;0.63;0.57;;;17.70;99.90;;;;;;4831897;29;20058;-87
2022/07/23 04:32:13;;;;;;;0.52;0.50;;;17.70;99.90;;;;;;4827017;29;20054;-85
2022/07/23 04:34:40;;;;;;;0.85;0.70;;;17.70;99.90;;;;;;4811124;29;20069;-89
2022/07/23 04:37:07;;;;;;;0.50;0.50;;;17.70;99.90;;;;;;4811291;29;20066;-88
2022/07/23 04:39:36;;;;;;;0.55;0.55;;;17.80;99.90;;;;;;4813855;29;20062;-88
2022/07/23 04:42:03;;;;;;;1.27;0.70;;;17.80;99.90;;;;;;4822203;29;20065;-87
2022/07/23 04:44:30;;;;;;;0.22;0.22;;;17.80;99.90;;;;;;4814564;29;20081;-88
2022/07/23 04:46:57;;;;;;;0.52;0.43;;;17.80;99.90;;;;;;4797265;29;20114;-87
2022/07/23 04:49:25;;;;;;;0.40;0.40;;;17.80;99.90;;;;;;4800869;29;20077;-87
2022/07/23 04:51:52;;;;;;;0.43;0.43;;;17.70;99.90;;;;;;4804485;29;20046;-87
2022/07/23 04:54:19;;;;;;;1.33;0.50;;;17.70;99.90;;;;;;4815881;29;20102;-88
2022/07/23 04:56:46;;;;;;;0.55;0.47;;;17.60;99.90;;;;;;4816336;29;20057;-87
2022/07/23 04:59:13;;;;;;;0.50;0.50;;;17.60;99.90;;;;;;4816800;29;20086;-88
2022/07/23 05:01:41;;;;;;;0.50;0.45;;;17.60;99.90;;;;;;4812542;29;20061;-88
2022/07/23 05:04:09;;;;;;;0.93;0.57;;;17.60;99.90;;;;;;4810099;29;20054;-87
2022/07/23 05:06:36;;;;;;;0.40;0.40;;;17.60;99.90;;;;;;4809437;29;20169;-88
2022/07/23 05:09:03;;;;;;;0.40;0.40;;;17.60;99.90;;;;;;4810251;29;20478;-87
2022/07/23 05:11:30;;;;;;;0.65;0.45;;;17.60;99.90;;;;;;4803180;29;20110;-87
2022/07/23 05:13:57;;;;;;;0.30;0.30;;;17.50;99.90;;;;;;4824464;29;20068;-87
2022/07/23 05:16:24;;;;;;;0.45;0.43;;;17.50;99.90;;;;;;4827533;29;20061;-86
2022/07/23 05:18:52;;;;;;;0.82;0.70;;;17.40;99.90;;;;;;4812231;29;20054;-89
2022/07/23 05:21:20;;;;;;;0.47;0.47;;;17.40;99.90;;;;;;4812607;29;20066;-87
2022/07/23 05:23:47;;;;;;;0.30;0.30;;;17.40;99.90;;;;;;4809952;29;20054;-87
2022/07/23 05:26:14;;;;;;;0.50;0.50;;;17.40;99.90;;;;;;4810215;29;20135;-87
2022/07/23 05:28:41;;;;;;;0.30;0.30;;;17.40;99.90;;;;;;4810997;29;20552;-87
2022/07/23 05:31:16;;;;;;;0.70;0.50;;;17.40;99.90;;;;;;4826316;29;20064;-89
2022/07/23 05:33:43;;;;;;;0.45;0.43;;;17.50;99.90;;;;;;4827025;29;20153;-88
2022/07/23 05:36:10;;;;;;;0.60;0.60;;;17.50;99.90;;;;;;4825471;29;20180;-88
2022/07/23 05:38:37;;;;;;;0.52;0.52;;;17.60;99.90;;;;;;4812986;29;20080;-89
2022/07/23 05:41:04;;;;;;;0.70;0.60;;;17.60;99.90;;;;;;4808712;29;20151;-88
2022/07/23 05:43:31;;;;;;;0.60;0.50;;;17.60;99.90;;;;;;4824194;29;20050;-88
2022/07/23 05:45:59;;;;;;;0.45;0.43;;;17.60;99.90;;;;;;4797434;29;20058;-88
2022/07/23 05:48:26;;;;;;;0.45;0.45;;;17.60;99.90;;;;;;4828275;29;20088;-88
2022/07/23 05:50:53;;;;;;;0.40;0.40;;;17.70;99.90;;;;;;4831798;29;20057;-88
2022/07/23 05:53:20;;;;;;;0.43;0.43;;;17.70;99.90;;;;;;4816881;29;20054;-89
2022/07/23 05:55:47;;;;;;;0.63;0.40;;;17.60;99.90;;;;;;4827676;29;20127;-90
2022/07/23 05:58:14;;;;;;;0.90;0.52;;;17.70;99.90;;;;;;4828050;29;20492;-89
2022/07/23 06:00:41;;;;;;;0.60;0.60;;;17.80;99.90;;;;;;4814712;29;20110;-89
2022/07/23 06:03:09;;;;;;;0.65;0.50;;;17.70;99.90;;;;;;4827922;29;20084;-90
2022/07/23 06:05:36;;;;;;;0.40;0.40;;;17.70;99.90;;;;;;4813615;29;20057;-91
2022/07/23 06:08:04;;;;;;;0.50;0.50;;;17.80;99.90;;;;;;4828746;29;20050;-89
2022/07/23 06:10:31;;;;;;;0.32;0.32;;;17.80;99.90;;;;;;4820655;29;20053;-90
2022/07/23 06:12:58;;;;;;;1.15;0.63;;;17.90;99.90;;;;;;4796330;29;20120;-89
2022/07/23 06:15:29;;;;;;;0.70;0.50;;;17.90;99.90;;;;;;4813374;29;20046;-90
2022/07/23 06:17:56;;;;;;;0.68;0.60;;;18.00;99.90;;;;;;4813104;29;20096;-89
2022/07/23 06:20:23;;;;;;;0.65;0.50;;;18.00;99.90;;;;;;4815321;29;20046;-90
2022/07/23 06:22:50;;;;;;;0.40;0.40;;;18.00;99.90;;;;;;4813454;29;20054;-89
2022/07/23 06:25:17;;;;;;;0.70;0.60;;;18.10;99.90;;;;;;4820515;29;20383;-90
2022/07/23 06:27:46;;;;;;;0.60;0.47;;;18.10;99.90;;;;;;4787889;29;20487;-89
2022/07/23 06:30:15;;;;;;;0.68;0.68;;;18.20;99.90;;;;;;4801600;29;20198;-89
2022/07/23 06:32:45;;;;;;;0.70;0.70;;;18.20;99.90;;;;;;4790411;29;20057;-90
2022/07/23 06:35:12;;;;;;;1.35;0.93;;;18.30;99.90;;;;;;4830685;29;20050;-89
2022/07/23 06:37:39;;;;;;;0.98;0.80;;;18.30;99.90;;;;;;4828980;29;20066;-87
2022/07/23 06:40:08;;;;;;;1.85;0.80;;;18.40;99.90;;;;;;4815853;29;20495;-89
2022/07/23 06:42:39;;;;;;;1.20;0.85;;;18.40;99.90;;;;;;4824455;29;20061;-89
2022/07/23 06:45:07;;;;;;;0.98;0.88;;;18.50;99.90;;;;;;4821743;29;20509;-88
2022/07/23 06:47:34;;;;;;;1.33;0.85;;;18.60;99.90;;;;;;4797188;29;20071;-90
2022/07/23 06:50:01;;;;;;;1.25;0.77;;;18.60;99.90;;;;;;4811953;29;20070;-89
2022/07/23 06:52:29;;;;;;;0.98;0.70;;;18.60;99.90;;;;;;4811438;29;20475;-90
2022/07/23 06:54:56;;;;;;;0.93;0.80;;;18.70;99.90;;;;;;4796082;29;20155;-89
2022/07/23 06:57:25;;;;;;;0.70;0.68;;;18.80;99.90;;;;;;4811277;29;20050;-89
2022/07/23 06:59:52;;;;;;;0.80;0.60;;;18.80;99.90;;;;;;4830273;29;20164;-91
2022/07/23 07:02:21;;;;;;;1.75;0.90;;;18.90;99.90;;;;;;4822272;29;20064;-89
2022/07/23 07:04:49;;;;;;;1.00;0.82;;;18.90;99.90;;;;;;4818003;29;20058;-90
2022/07/23 07:07:16;;;;;;;0.60;0.60;;;19.00;99.90;;;;;;4799978;29;20113;-90
2022/07/23 07:09:44;;;;;;;1.20;0.80;;;19.00;99.90;;;;;;4809325;29;20140;-90
2022/07/23 07:12:14;;;;;;;1.15;0.70;;;19.10;99.90;;;;;;4791240;29;20058;-90
2022/07/23 07:14:41;;;;;;;1.05;0.90;;;19.20;99.90;;;;;;4821172;29;20050;-90
2022/07/23 07:17:10;;;;;;;1.55;1.00;;;19.20;99.90;;;;;;4809799;29;20497;-91
2022/07/23 07:19:37;;;;;;;1.25;0.90;;;19.30;99.90;;;;;;4812029;29;20046;-90
2022/07/23 07:22:05;;;;;;;1.17;0.90;;;19.30;99.90;;;;;;4806449;29;20509;-89
2022/07/23 07:24:32;;;;;;;1.00;0.90;;;19.40;99.90;;;;;;4792637;29;20050;-90
2022/07/23 07:27:04;;;;;;;3.17;1.20;;;19.40;99.90;;;;;;4797951;29;20049;-90
2022/07/23 07:29:31;;;;;;;1.15;0.95;;;19.50;99.90;;;;;;4804747;29;20061;-89
2022/07/23 07:31:58;;;;;;;1.38;1.00;;;19.50;99.90;;;;;;4813126;29;20046;-91
2022/07/23 07:34:27;;;;;;;1.00;0.90;;;19.60;99.90;;;;;;4820911;29;20110;-91
2022/07/23 07:36:54;;;;;;;1.25;0.90;;;19.60;99.90;;;;;;4791326;29;20409;-90
2022/07/23 07:39:21;;;;;;;1.10;0.88;;;19.60;99.90;;;;;;4821625;29;20064;-91
2022/07/23 07:41:49;;;;;;;1.50;1.20;;;19.70;99.90;;;;;;4803656;29;20314;-91
2022/07/23 07:44:17;;;;;;;1.98;1.10;;;19.80;99.90;;;;;;4823292;29;20054;-90
2022/07/23 07:46:44;;;;;;;0.80;0.75;;;19.80;99.90;;;;;;4792072;29;20068;-90
2022/07/23 07:49:11;;;;;;;0.85;0.80;;;19.90;99.90;;;;;;4800794;29;20169;-90
2022/07/23 07:51:45;;;;;;;1.52;0.98;;;19.90;99.90;;;;;;4797776;29;20076;-90
2022/07/23 07:54:13;;;;;;;0.50;0.50;;;20.00;99.90;;;;;;4825572;29;20053;-91
2022/07/23 07:56:46;;;;;;;0.98;0.60;;;20.10;99.90;;;;;;4824882;29;20065;-90
2022/07/23 07:59:17;;;;;;;1.27;0.90;;;20.20;99.90;;;;;;4825922;29;20073;-93
2022/07/23 08:02:06;;;;;;;1.08;0.90;;;20.20;99.90;;;;;;4822258;29;20114;-94
2022/07/23 08:04:33;;;;;;;1.10;0.93;;;20.30;99.90;;;;;;4825024;29;20062;-91
2022/07/23 08:07:00;;;;;;;2.78;1.10;;;20.40;99.90;;;;;;4795314;29;20053;-90
2022/07/23 08:09:29;;;;;;;1.83;1.33;;;20.40;99.90;;;;;;4812745;29;20066;-88
2022/07/23 08:12:11;;;;;;;1.23;0.90;;;20.40;99.90;;;;;;4806525;29;20053;-92
2022/07/23 08:14:38;;;;;;;1.13;1.00;;;20.40;99.90;;;;;;4802226;29;20054;-92
2022/07/23 08:17:05;;;;;;;1.50;1.23;;;20.40;99.90;;;;;;4811550;29;20058;-91
2022/07/23 08:19:41;;;;;;;0.90;0.80;;;20.50;99.90;;;;;;4823445;29;20123;-90
2022/07/23 08:22:08;;;;;;;1.33;1.00;;;20.50;99.90;;;;;;4813688;29;20063;-90
2022/07/23 08:24:35;;;;;;;0.80;0.77;;;20.50;99.90;;;;;;4810912;29;20103;-89
2022/07/23 08:27:04;;;;;;;1.17;1.00;;;20.60;99.90;;;;;;4806254;29;20115;-90
2022/07/23 08:29:32;;;;;;;1.27;0.95;;;20.60;99.90;;;;;;4841054;29;20086;-91
2022/07/23 08:32:02;;;;;;;0.90;0.68;;;20.60;99.90;;;;;;4805138;29;20056;-90
2022/07/23 08:34:52;;;;;;;1.83;1.00;;;20.60;99.90;;;;;;4830039;29;20089;-92
2022/07/23 08:37:19;;;;;;;1.40;0.90;;;20.70;99.90;;;;;;4813744;29;20114;-90
2022/07/23 08:39:46;;;;;;;1.10;0.82;;;20.70;99.90;;;;;;4804851;29;20066;-89
2022/07/23 08:42:14;;;;;;;0.80;0.80;;;20.80;99.40;;;;;;4802637;29;20057;-90
2022/07/23 08:44:43;;;;;;;1.08;0.95;;;20.80;99.70;;;;;;4810095;29;20186;-91
2022/07/23 08:47:11;;;;;;;0.70;0.70;;;20.90;99.50;;;;;;4820762;29;20061;-90
2022/07/23 08:49:39;;;;;;;0.98;0.70;;;21.00;99.40;;;;;;4782159;29;20160;-90
2022/07/23 08:52:06;;;;;;;0.95;0.90;;;21.00;97.80;;;;;;4804947;29;20110;-90
2022/07/23 08:54:33;;;;;;;0.68;0.60;;;21.00;97.30;;;;;;4804132;29;20094;-90
2022/07/23 08:57:00;;;;;;;0.52;0.52;;;21.00;97.60;;;;;;4805947;29;20145;-91
2022/07/23 08:59:28;;;;;;;1.00;0.40;;;21.10;97.60;;;;;;4806809;29;20336;-90
2022/07/23 09:02:00;;;;;;;0.57;0.57;;;21.10;97.10;;;;;;4809513;29;20065;-90
2022/07/23 09:04:28;;;;;;;0.75;0.60;;;21.30;96.90;;;;;;4809220;29;20053;-91
2022/07/23 09:06:55;;;;;;;0.50;0.50;;;21.30;97.30;;;;;;4820863;29;20070;-89
2022/07/23 09:09:22;;;;;;;1.77;0.77;;;21.30;97.40;;;;;;4814268;29;20447;-91
2022/07/23 09:12:04;;;;;;;1.48;0.80;;;21.30;96.40;;;;;;4780354;29;20486;-89
2022/07/23 09:14:42;;;;;;;1.00;0.80;;;21.40;96.90;;;;;;4793097;29;20054;-89
2022/07/23 09:17:15;;;;;;;1.00;0.85;;;21.50;97.10;;;;;;4809742;29;20446;-91
2022/07/23 09:19:43;;;;;;;1.27;0.65;;;21.50;96.00;;;;;;4809764;29;20466;-89
2022/07/23 09:22:22;;;;;;;0.90;0.60;;;21.60;95.80;;;;;;4790296;29;20180;-90
2022/07/23 09:25:07;;;;;;;0.70;0.70;;;21.60;95.10;;;;;;4796165;29;20141;-90
2022/07/23 09:27:56;;;;;;;0.85;0.68;;;21.70;95.30;;;;;;4807965;29;20061;-89
2022/07/23 09:30:24;;;;;;;0.70;0.70;;;21.80;94.80;;;;;;4808270;29;20056;-90
2022/07/23 09:33:13;;;;;;;0.70;0.70;;;21.90;93.80;;;;;;4822618;29;20065;-90
2022/07/23 09:35:55;;;;;;;0.60;0.60;;;21.90;93.70;;;;;;4824041;29;20060;-90
2022/07/23 09:38:23;;;;;;;1.00;0.80;;;22.10;93.60;;;;;;4809365;29;20062;-90
2022/07/23 09:41:09;;;;;;;1.35;1.05;;;22.10;93.20;;;;;;4808961;29;20276;-91
2022/07/23 09:43:37;;;;;;;0.88;0.75;;;22.10;93.60;;;;;;4804328;29;20126;-90
2022/07/23 09:46:26;;;;;;;0.98;0.80;;;22.10;92.00;;;;;;4804745;29;20050;-90
2022/07/23 09:48:56;;;;;;;0.93;0.73;;;22.20;92.30;;;;;;4803754;29;20141;-90
2022/07/23 09:51:38;;;;;;;1.02;0.85;;;22.20;92.70;;;;;;4804280;29;20149;-90
2022/07/23 09:54:05;;;;;;;1.02;0.65;;;22.30;93.00;;;;;;4804604;29;20053;-90
2022/07/23 09:56:37;;;;;;;0.73;0.73;;;22.30;92.20;;;;;;4823155;29;20057;-90
2022/07/23 09:59:14;;;;;;;1.20;0.75;;;22.30;91.80;;;;;;4823285;29;20367;-90
2022/07/23 10:01:41;;;;;;;0.85;0.80;;;22.30;91.80;;;;;;4797705;29;20494;-93
2022/07/23 10:04:13;;;;;;;0.95;0.70;;;22.40;92.20;;;;;;4819669;29;20282;-91
2022/07/23 10:06:40;;;;;;;0.65;0.57;;;22.40;92.30;;;;;;4807038;29;20061;-91
2022/07/23 10:09:07;;;;;;;1.05;0.70;;;22.50;92.80;;;;;;4799498;29;20049;-91
2022/07/23 10:11:35;;;;;;;0.38;0.38;;;22.70;93.10;;;;;;4820049;29;20077;-91
2022/07/23 10:14:04;;;;;;;1.15;0.68;;;22.90;92.10;;;;;;4787159;29;20057;-91
2022/07/23 10:16:32;;;;;;;1.05;0.60;;;22.90;92.30;;;;;;4809818;29;20107;-91
2022/07/23 10:18:59;;;;;;;1.25;0.80;;;22.90;92.40;;;;;;4807648;29;20064;-92
2022/07/23 10:21:50;;;;;;;0.60;0.60;;;23.00;91.70;;;;;;4804657;29;20078;-90
2022/07/23 10:24:36;;;;;;;0.63;0.50;;;23.10;91.30;;;;;;4793364;29;20057;-90
2022/07/23 10:27:31;;;;;;;0.70;0.45;;;23.20;90.30;;;;;;4804679;29;20050;-91
2022/07/23 10:30:07;;;;;;;0.80;0.60;;;23.30;90.80;;;;;;4804550;29;20487;-90
2022/07/23 10:33:11;;;;;;;0.40;0.40;;;23.30;91.20;;;;;;4798890;29;20050;-90
2022/07/23 10:35:50;;;;;;;0.60;0.50;;;23.40;90.40;;;;;;4813142;29;20087;-91
2022/07/23 10:39:01;;;;;;;0.50;0.47;;;23.40;89.50;;;;;;4792730;29;20058;-90
2022/07/23 10:41:39;;;;;;;0.40;0.32;;;23.40;87.80;;;;;;4802841;29;20055;-91
2022/07/23 10:44:13;;;;;;;0.70;0.60;;;23.60;85.90;;;;;;4804947;29;20054;-90
2022/07/23 10:49:35;;;;;;;0.77;0.68;;;23.70;84.10;;;;;;4818037;29;20135;-91
2022/07/23 10:52:22;;;;;;;0.50;0.40;;;23.80;83.40;;;;;;4807145;29;20106;-90
2022/07/23 10:55:02;;;;;;;0.52;0.43;;;23.70;82.10;;;;;;4809554;29;20054;-90
2022/07/23 10:57:29;;;;;;;0.45;0.45;;;23.70;82.70;;;;;;4814979;29;20383;-91
2022/07/23 11:00:07;;;;;;;0.50;0.40;;;23.80;83.10;;;;;;4796703;29;20141;-90
2022/07/23 11:02:35;;;;;;;0.40;0.40;;;23.90;83.10;;;;;;4813826;29;20065;-91
2022/07/23 11:05:06;;;;;;;0.40;0.40;;;24.00;84.50;;;;;;4824162;29;20149;-90
2022/07/23 11:07:34;;;;;;;0.43;0.43;;;24.10;82.10;;;;;;4810276;29;20057;-91
2022/07/23 11:10:03;;;;;;;0.55;0.50;;;24.10;80.80;;;;;;4797358;29;20081;-91
2022/07/23 11:12:34;;;;;;;0.43;0.43;;;24.10;80.20;;;;;;4796787;29;20061;-91
2022/07/23 11:15:12;;;;;;;0.40;0.40;;;24.10;81.20;;;;;;4821730;29;20089;-90
2022/07/23 11:18:00;;;;;;;0.55;0.47;;;24.30;81.30;;;;;;4792364;29;20108;-91
2022/07/23 11:20:28;;;;;;;0.45;0.43;;;24.50;80.80;;;;;;4825823;29;20160;-91
2022/07/23 11:22:59;;;;;;;0.45;0.45;;;24.60;80.20;;;;;;4809260;29;20058;-90
2022/07/23 11:43:56;;;;;;;1.15;0.50;;;25.70;78.00;;;;;;6196998;22;1755056;-80
2022/07/23 11:46:23;;;;;;;0.68;0.50;;;26.00;74.50;;;;;;6244974;23;20027;-79
2022/07/23 11:49:01;;;;;;;0.98;0.43;;;26.00;73.90;;;;;;6245376;23;20024;-80
2022/07/23 11:51:29;;;;;;;0.75;0.50;;;26.10;73.80;;;;;;6219666;23;20367;-79
2022/07/23 11:53:55;;;;;;;0.50;0.40;;;26.30;73.70;;;;;;6244750;23;20066;-79
2022/07/23 11:56:22;;;;;;;0.50;0.50;;;26.50;73.20;;;;;;6193781;23;20024;-81
2022/07/23 11:58:57;;;;;;;0.60;0.60;;;26.60;72.00;;;;;;6219054;23;20115;-80
2022/07/23 12:01:26;;;;;;;0.50;0.50;;;26.80;71.90;;;;;;6217029;23;20024;-78
2022/07/23 12:03:53;;;;;;;0.45;0.45;;;26.80;72.30;;;;;;6224119;23;20028;-80
2022/07/23 12:06:20;;;;;;;0.30;0.30;;;27.20;73.60;;;;;;6208931;23;20028;-77
2022/07/23 12:08:47;;;;;;;0.70;0.43;;;27.60;71.80;;;;;;6210437;23;20020;-80
2022/07/23 12:11:13;;;;;;;0.75;0.60;;;27.80;70.40;;;;;;6212808;23;20119;-79
2022/07/23 12:13:40;;;;;;;2.33;1.02;;;27.80;69.60;;;;;;6162491;23;20377;-80
2022/07/23 12:16:07;;;;;;;0.73;0.70;;;27.70;69.20;;;;;;6188920;23;20582;-79
2022/07/23 12:18:34;;;;;;;0.50;0.50;;;27.60;69.10;;;;;;6163818;23;20416;-79
2022/07/23 12:21:03;;;;;;;0.52;0.40;;;27.70;68.60;;;;;;6213789;23;20028;-80
2022/07/23 12:23:30;;;;;;;0.43;0.40;;;27.80;68.40;;;;;;6211944;23;20020;-78
2022/07/23 12:26:00;;;;;;;0.43;0.40;;;27.90;68.70;;;;;;6160766;23;20021;-78
2022/07/23 12:28:28;;;;;;;0.50;0.50;;;28.10;67.90;;;;;;6209830;23;20373;-77
2022/07/23 12:30:56;;;;;;;0.52;0.52;;;28.40;67.50;;;;;;6188609;23;20029;-79
2022/07/23 12:33:27;;;;;;;0.70;0.63;;;28.80;67.30;;;;;;6161501;23;20429;-78
2022/07/23 12:35:55;;;;;;;0.77;0.60;;;29.40;66.60;;;;;;6208671;23;20025;-78
2022/07/23 12:38:23;;;;;;;0.40;0.40;;;29.70;65.70;;;;;;6203377;23;20087;-79
2022/07/23 12:41:02;;;;;;;0.63;0.63;;;30.30;66.50;;;;;;6205037;23;20020;-79
2022/07/23 12:43:39;;;;;;;0.60;0.60;;;31.00;64.10;;;;;;6202295;23;20056;-79
2022/07/23 12:46:11;;;;;;;0.63;0.50;;;31.10;64.10;;;;;;6205374;23;20120;-79
2022/07/23 12:48:49;;;;;;;0.95;0.70;;;31.30;63.50;;;;;;6203767;23;20503;-79
2022/07/23 12:51:23;;;;;;;0.80;0.60;;;30.90;63.10;;;;;;6204587;23;20025;-79
2022/07/23 12:53:53;;;;;;;0.50;0.50;;;30.50;63.00;;;;;;6205462;23;20498;-79
2022/07/23 12:56:23;;;;;;;0.55;0.50;;;30.80;63.40;;;;;;6202469;23;20037;-78
2022/07/23 12:58:54;;;;;;;0.98;0.50;;;31.30;62.90;;;;;;6202687;23;20025;-80
2022/07/23 13:01:21;;;;;;;0.40;0.40;;;31.50;62.40;;;;;;6179416;23;20061;-78
2022/07/23 13:04:08;;;;;;;0.32;0.32;;;31.70;62.10;;;;;;6207494;23;20043;-79
2022/07/23 13:06:48;;;;;;;0.30;0.30;;;32.00;61.30;;;;;;6207069;23;20083;-78
2022/07/23 13:09:17;;;;;;;0.50;0.50;;;32.00;60.60;;;;;;6181111;23;20025;-79
2022/07/23 13:11:45;;;;;;;0.30;0.30;;;32.40;59.90;;;;;;6203942;23;20024;-77
2022/07/23 13:14:13;;;;;;;0.30;0.30;;;32.70;59.00;;;;;;6204825;23;20017;-77
2022/07/23 13:16:41;;;;;;;0.60;0.60;;;32.90;58.70;;;;;;6206015;23;20503;-77
2022/07/23 13:19:08;;;;;;;0.43;0.40;;;32.80;58.10;;;;;;6205365;23;20380;-77
2022/07/23 13:21:38;;;;;;;0.50;0.50;;;32.80;58.10;;;;;;6205388;23;20024;-77
2022/07/23 13:24:05;;;;;;;0.50;0.50;;;32.90;57.90;;;;;;6179480;23;20032;-78
2022/07/23 13:26:35;;;;;;;0.65;0.30;;;32.80;57.50;;;;;;6203432;23;20024;-77
2022/07/23 13:29:02;;;;;;;0.65;0.43;;;32.70;58.10;;;;;;6201728;23;20024;-78